Weather observations for the past three days for
Marion Municipal Airport
Metric (Imperial)
Date Time (edt) Wind (kph) Vis. (km) Weather Sky Cond. Temperature (ºC) Relative Humidity Wind Chill (°C) Heat Index (°C) Pressure Precipitation (cm)
Air Dwpt 6 hour altimeter (cm) sea level (mb) 1 hr 3 hr 6 hr
Max. Min.
07 13:15 NW 19 G 31 16.09 Fair CLR 12.6 -0.7 40% 76.17 0.0
07 12:55 W 22 G 28 11.27 Fair CLR 12.3 -0.5 42% 76.2 0.0
07 12:35 W 22 16.09 Fair CLR 11.6 -1.3 41% 76.2 0.0
07 12:15 NW 17 G 31 16.09 Fair CLR 11.1 -1.8 41% 76.23 0.0
07 11:55 NW 15 G 26 16.09 Fair CLR 10.8 -1.6 42% 76.23 0.0
07 11:35 W 15 16.09 Fair CLR 10.4 -1.3 44% 76.23 0.0
07 11:15 NW 13 G 28 16.09 Fair CLR 10 -2 43% 8 76.2 0.0
07 10:55 W 17 16.09 Fair CLR 9.9 -1.6 45% 8 76.23 0.0
07 10:35 W 13 16.09 Fair CLR 9.2 -1.3 48% 7 76.2 0.0
07 10:15 W 20 11.27 Fair CLR 8.7 -1.4 49% 6 76.23 0.0
07 09:55 W 17 16.09 Fair CLR 8.1 -1.2 52% 6 76.23 0.0
07 09:35 W 13 16.09 Fair CLR 7.6 -0.5 57% 6 76.23 0.0
07 09:15 W 11 11.27 Fair CLR 6.9 -0.3 60% 5 76.2 0.0
07 08:55 W 9 16.09 Fair CLR 6.1 0 65% 4 76.2 0.0
07 08:35 NW 9 16.09 Fair CLR 5.5 0.2 69% 4 76.2 0.0
07 08:10 NW 9 16.09 Fair CLR 4.9 0.2 72% 3 76.2 0.0
07 07:55 Calm 16.09 Fair CLR 4.2 0.2 27 0.6 75% 76.2 0.0
07 07:35 Calm 16.09 Fair CLR 3.8 0.1 77% 76.2 0.0
07 07:15 Calm 16.09 Fair CLR 3.5 -0.1 78% 76.17 0.0
07 06:55 Calm 16.09 Fair CLR 3.3 -0.3 78% 76.17 0.0
07 06:35 Calm 16.09 Fair CLR 3.5 -0.6 75% 76.15 0.0
07 06:15 Calm 16.09 Fair CLR 3.8 -1.1 71% 76.17 0.0
07 05:55 Calm 16.09 Fair CLR 3.7 -1.1 71% 76.15 0.0
07 05:35 NW 6 16.09 Fair CLR 3.5 -0.9 73% 76.15 0.0
07 05:15 NW 6 16.09 Fair CLR 3.5 -0.8 74% 76.15 0.0
07 04:55 NW 7 16.09 Fair CLR 3.7 -0.9 72% 2 76.15 0.0
07 04:35 NW 9 16.09 Fair CLR 4 -0.9 71% 2 76.12 0.0
07 04:15 NW 9 16.09 Fair CLR 4.2 -0.8 70% 2 76.15 0.0
07 03:55 NW 7 16.09 Fair CLR 4.1 -0.2 74% 3 76.15 0.0
07 03:35 NW 9 16.09 Fair CLR 4.1 -0.1 74% 2 76.15 0.0
07 03:15 NW 9 16.09 Fair CLR 4 0 75% 2 76.15 0.0
07 02:55 W 7 16.09 Fair CLR 4.4 0 73% 3 76.15 0.0
07 02:35 W 9 16.09 Fair CLR 5.4 0 68% 4 76.17 0.0
07 02:15 NW 9 16.09 Fair CLR 6 -0.1 65% 4 76.17 0.0
07 01:55 NW 11 16.09 Fair CLR 5.9 0.3 27 0.6 68% 4 76.17 0.0
07 01:35 W 11 16.09 Fair CLR 5.1 1.1 76% 3 76.17 0.0
07 01:15 W 11 16.09 Fair CLR 5.4 1.3 75% 3 76.17 0.0
07 00:55 W 11 16.09 Fair CLR 5.7 1.4 74% 4 76.17 0.0
07 00:35 W 13 16.09 Fair CLR 5.6 1.8 77% 3 76.15 0.0
07 00:15 W 13 16.09 Fair CLR 5.8 2 77% 3 76.15 0.0
06 23:55 W 7 8.05 Fair with Haze CLR 5.9 2.1 77% 5 76.15 0.0
06 23:15 W 11 16.09 Fair CLR 6.4 2.6 77% 4 76.15 0.0
06 22:55 W 9 16.09 Fair CLR 7 2.5 73% 5 76.12 0.0
06 22:35 W 11 16.09 Fair CLR 7.5 2.6 71% 6 76.12 0.0
06 22:15 W 11 16.09 Fair CLR 7.8 2.8 71% 6 76.12 0.0
06 21:55 W 11 16.09 Fair CLR 8 3.2 72% 6 76.12 0.0
06 21:35 W 11 16.09 Fair CLR 8.6 3.3 70% 7 76.12 0.0
06 21:15 W 11 16.09 Fair CLR 9 3.2 67% 8 76.1 0.0
06 20:55 W 11 11.27 Fair CLR 10 2.7 61% 9 76.1 0.0
06 20:35 W 11 16.09 Fair CLR 10.9 2.4 56% 76.07 0.0
06 20:15 W 11 8.05 Fair with Haze CLR 11.1 2.3 55% 76.05 0.0
06 19:55 W 11 16.09 Partly Cloudy SCT070 11.3 2 27 0.6 53% 76.05 0.0
06 19:35 W 15 16.09 Partly Cloudy SCT070 11.8 0.9 47% 76.05 0.0
06 18:55 W 15 16.09 Fair CLR 12.3 0.6 45% 76.05 0.0
06 18:35 W 24 16.09 Partly Cloudy SCT065 12.7 0.4 43% 76.05 0.0
06 18:15 W 15 G 31 11.27 Partly Cloudy SCT065 13.3 0.7 42% 76.05 0.0
06 17:35 W 22 16.09 Mostly Cloudy SCT055 SCT065 BKN120 12.8 1.1 45% 76.05 0.0
06 17:15 NW 19 11.27 Overcast SCT050 SCT065 OVC120 12.7 1.7 47% 76.05 0.0
06 16:55 W 15 11.27 Mostly Cloudy BKN110 12.5 0.6 44% 76.05 0.0
06 16:35 W 19 16.09 Overcast OVC100 12.4 0 43% 76.05 0.0
06 16:15 W 17 16.09 Overcast OVC095 12.4 0.1 43% 76.05 0.0
06 15:55 W 13 16.09 Overcast SCT050 OVC095 12.1 0.9 47% 76.05 0.0
06 15:35 W 11 16.09 Overcast SCT050 OVC095 12.1 0.7 46% 76.05 0.0
06 15:15 W 13 16.09 Overcast OVC095 12.1 0.9 47% 76.07 0.0
06 14:55 W 11 11.27 Overcast OVC095 11.9 0.7 47% 76.07 0.0
06 14:35 W 11 16.09 Mostly Cloudy BKN095 11.6 0.6 47% 76.07 0.0
06 14:15 W 13 16.09 Overcast OVC095 11.5 0.3 46% 76.07 0.0
06 13:55 W 9 16.09 Overcast OVC095 11.5 -0.2 27 0.6 45% 76.07 0.0
06 13:35 W 6 11.27 Overcast OVC095 11.5 -0.6 43% 76.07 0.0
06 13:15 W 6 11.27 Mostly Cloudy BKN095 BKN120 11.6 0.1 45% 76.05 0.0
06 12:55 Calm 16.09 Partly Cloudy SCT120 11.3 -0.1 46% 76.05 0.0
06 12:35 Calm 16.09 Partly Cloudy SCT120 10.9 -0.1 47% 76.07 0.0
06 12:15 N 7 16.09 Fair CLR 11 -0.2 46% 76.07 0.0
06 11:55 N 6 16.09 Fair CLR 10.9 0.6 49% 76.07 0.0
06 11:35 N 7 11.27 Fair CLR 11.1 0.5 48% 76.05 0.0
06 11:15 NW 9 11.27 Fair CLR 11 1 50% 76.05 0.0
06 10:55 NW 7 16.09 Fair CLR 11 1.4 52% 76.05 0.0
06 10:35 N 6 16.09 Fair CLR 10.4 0.8 52% 76.02 0.0
06 10:15 Calm 16.09 Fair CLR 10.2 2.2 58% 76.05 0.0
06 09:55 Calm 11.27 Fair CLR 9.9 2.8 62% 76 0.0
06 09:35 NE 7 6.44 Fair with Haze CLR 9.5 2.8 63% 9 76 0.0
06 09:15 N 11 16.09 Fair CLR 9.1 3.3 67% 8 76 0.0
06 08:55 N 11 16.09 Fair CLR 8.7 4.6 76% 7 75.97 0.0
06 08:35 N 6 16.09 Fair CLR 8.5 5.6 82% 75.97 0.0
06 07:55 W 6 6.44 Fog/Mist CLR 7.3 6 27 0.6 92% 75.92 0.0 0.05
06 07:35 Calm 8.05 Fog/Mist SCT075 7 5.6 91% 75.9 0.0
06 07:15 Calm 8.05 Fog/Mist OVC075 7 5.4 90% 75.87 0.0
06 06:55 W 6 11.27 Overcast OVC075 6.8 5.4 91% 75.84 0.0
06 06:35 W 6 16.09 Overcast OVC065 6.8 5.3 90% 75.82 0.0
06 06:15 W 7 16.09 Overcast OVC065 6.7 5.4 92% 6 75.82 0.0
06 05:55 Calm 11.27 Overcast OVC065 6.8 5.4 91% 75.82 0.0
06 05:35 Calm 11.27 Overcast OVC065 6.7 5.2 90% 75.79 0.0
06 05:15 Calm 16.09 Overcast OVC065 6.6 5 90% 75.79 0.0
06 04:55 Calm 16.09 Overcast OVC065 6.5 4.8 89% 75.77 0.0 0.05
06 04:35 Calm 16.09 Overcast OVC065 6.4 4.9 90% 75.79 0.0
06 04:15 Calm 16.09 Overcast OVC065 6.3 4.8 90% 75.77 0.0
06 03:55 Calm 16.09 Overcast BKN065 BKN090 OVC110 6.1 4.7 91% 75.74 0.0
06 03:35 SE 7 16.09 Overcast OVC100 6.3 5 92% 5 75.72 0.0
06 03:15 SE 6 11.27 Overcast SCT085 OVC110 6.5 5 90% 75.72 0.0
06 02:55 Calm 16.09 Overcast OVC095 6.5 4.9 90% 75.74 0.0 0.05
06 02:35 Calm 16.09 Overcast SCT047 SCT065 OVC085 6.5 4.7 88% 75.74 0.0 0.05
06 02:15 Calm 8.05 Light Rain SCT047 SCT065 OVC085 6.7 4.8 88% 75.74 0.0 0.05
06 01:55 NE 6 16.09 Light Rain SCT050 SCT065 OVC085 6.8 4.4 27 0.6 85% 75.79 0.0 0.05 0.99
06 01:35 Calm 11.27 Light Rain SCT050 SCT075 OVC085 6.8 4.6 86% 75.84 0.0 0.03
06 01:15 N 6 11.27 Light Rain SCT050 SCT065 OVC085 6.8 4.5 85% 75.79 0.0 0.03
06 00:55 NE 7 11.27 Light Rain OVC050 7.2 5.4 88% 6 75.79 0.0 0.15
06 00:35 SE 6 11.27 Light Rain BKN048 BKN060 OVC080 7.4 5.6 88% 75.79 0.0 0.13
06 00:15 E 9 11.27 Light Rain SCT016 BKN060 OVC080 7.5 5.9 90% 6 75.74 0.0 0.08
05 23:55 Calm 11.27 Light Rain BKN060 OVC080 7.6 6.2 91% 75.74 0.0 0.23
05 23:35 Calm 8.05 Light Rain SCT008 BKN060 OVC080 7.7 6.5 92% 75.74 0.0 0.15
05 23:15 Calm 8.05 Light Rain SCT010 BKN050 OVC070 7.7 6.5 92% 75.74 0.0 0.05
05 22:55 Calm 6.44 Light Rain BKN050 OVC055 7.7 6.2 90% 75.74 0.0 0.3 0.56
05 22:35 NE 6 11.27 Rain BKN050 OVC075 7.7 6 89% 75.74 0.0 0.15
05 22:15 NE 9 11.27 Rain SCT050 BKN070 OVC085 7.7 5.9 89% 6 75.72 0.0 0.03
05 21:55 NE 11 11.27 Light Rain SCT044 BKN060 OVC085 7.7 6.3 91% 6 75.69 0.0 0.15
05 21:35 NE 6 8.05 Light Rain SCT006 BKN040 OVC050 7.7 6.5 92% 75.69 0.0 0.08
05 21:15 Calm 11.27 Light Rain SCT006 BKN018 OVC050 7.6 6.4 92% 75.69 0.0 0.03
05 20:55 Calm 11.27 Light Rain SCT006 BKN023 OVC070 7.6 6.5 93% 75.69 0.0 0.1
05 20:35 Calm 6.44 Fog/Mist BKN006 OVC014 7.6 6.4 92% 75.69 0.0 0.08
05 20:15 Calm 6.44 Light Rain BKN006 BKN013 OVC050 7.6 6.2 91% 75.69 0.0 0.05
05 19:55 Calm 6.44 Light Rain SCT006 BKN038 OVC050 7.7 6 27 0.6 89% 75.67 0.0 0.15 0.74
05 19:35 Calm 8.05 Light Rain OVC038 7.7 5.8 88% 75.69 0.0 0.08
05 19:15 N 6 6.44 Light Rain OVC036 7.9 6 88% 75.69 0.0 0.03
05 18:55 Calm 8.05 Fog/Mist OVC032 7.9 6.1 89% 75.72 0.0 0.13
05 18:35 Calm 6.44 Light Rain SCT007 BKN028 OVC034 8 5.9 87% 75.72 0.0 0.08
05 18:15 N 6 6.44 Light Rain SCT007 SCT022 OVC034 8 6.2 89% 75.72 0.0 0.05
05 17:55 N 9 8.05 Light Rain BKN007 BKN019 OVC029 8.1 6.6 90% 7 75.72 0.0 0.08
05 17:35 N 11 8.05 Light Rain BKN007 OVC012 8.1 6.5 90% 6 75.72 0.0 0.05
05 17:15 N 13 4.83 Light Rain BKN005 OVC012 8.4 7.1 92% 7 75.69 0.0 0.03
05 16:55 N 9 2.41 Light Rain BKN007 OVC012 8.5 7 90% 7 75.69 0.0 0.1 0.38
05 16:35 N 11 4.83 Fog/Mist SCT007 SCT011 OVC020 8.4 6.8 90% 7 75.69 0.0 0.05
05 16:15 N 13 2.82 Fog/Mist BKN007 BKN011 OVC018 8.8 7 89% 7 75.67 0.0 0.03
05 15:55 N 13 4.83 Fog/Mist BKN007 OVC018 9.3 7.5 89% 8 75.64 0.0 0.05
05 15:35 N 15 16.09 Overcast BKN007 BKN018 OVC033 9.4 7.4 87% 7 75.64 0.0 0.03
05 15:15 N 13 16.09 Light Rain SCT009 BKN033 BKN040 9.2 7.3 88% 7 75.64 0.0 0.03
05 14:55 N 9 8.05 Light Rain BKN009 BKN014 OVC019 9.2 7.3 88% 8 75.67 0.0 0.23
05 14:35 N 6 8.05 Light Rain OVC019 9.2 7.3 88% 75.69 0.0 0.2
05 14:15 Calm 4.83 Light Rain OVC019 9.3 7.2 87% 75.69 0.0 0.1
05 13:55 Calm 6.44 Light Rain BKN023 OVC028 9.5 6.9 27 0.6 84% 75.69 0.0 0.15 0.28
05 13:35 Calm 8.05 Light Rain OVC028 9.6 6.4 81% 75.72 0.0 0.05
05 12:55 Calm 8.05 Light Rain OVC030 10.1 5.5 73% 75.69 0.0 0.08
05 12:35 Calm 11.27 Light Rain SCT025 BKN031 OVC050 10.5 5.2 70% 75.72 0.0 0.03
05 12:15 N 9 11.27 Overcast SCT025 BKN035 OVC050 10.6 6 73% 75.67 0.0
05 11:55 N 11 11.27 Overcast BKN023 OVC031 10.5 5.8 73% 75.69 0.0 0.03
05 11:35 N 7 16.09 Overcast SCT014 OVC023 10.4 5.2 70% 75.72 0.0 0.03
05 11:15 N 17 11.27 Light Rain BKN016 OVC021 12.3 8.7 79% 75.69 0.0 0.03
05 10:55 W 20 6.44 Light Rain OVC016 13.5 11.2 86% 75.67 0.0 0.03 0.03
05 10:35 W 20 11.27 Overcast BKN014 OVC019 13.9 11.3 84% 75.64 0.0
05 10:15 W 24 16.09 Overcast OVC012 14.3 11.6 84% 75.62 0.0
05 09:55 W 26 16.09 Overcast BKN014 OVC030 14.5 11.7 83% 75.62 0.0
05 09:35 SW 19 16.09 Overcast SCT014 SCT022 OVC030 14.1 11.6 85% 75.62 0.0
05 09:15 SW 24 16.09 Overcast OVC027 13.6 11.5 87% 75.57 0.0
05 08:35 SW 26 G 33 16.09 Overcast OVC025 13.4 11.1 86% 75.57 0.0
05 08:15 SW 22 16.09 Partly Cloudy SCT027 SCT065 13.3 11.1 87% 75.51 0.0
05 07:55 SW 7 16.09 Partly Cloudy SCT070 SCT085 13 10.9 27 0.6 87% 75.49 0.0 0.56
05 07:15 SW 19 16.09 Partly Cloudy SCT100 12.4 10.1 86% 75.51 0.0
05 06:55 SW 19 16.09 Fair CLR 12.3 10 86% 75.49 0.0
05 06:35 SW 20 16.09 Fair CLR 12.4 10.1 86% 75.49 0.0
05 06:15 SW 20 16.09 Fair CLR 12.5 10 85% 75.46 0.0
05 05:55 SW 15 16.09 Fair CLR 12.5 10.1 85% 75.44 0.0
05 05:35 SW 13 16.09 Fair CLR 12.8 10 83% 75.41 0.0
05 05:15 SW 19 16.09 Fair CLR 12.9 10 83% 75.36 0.0
05 04:55 S 26 16.09 Partly Cloudy SCT120 13 10.2 83% 75.31 0.0 0.03 0.56
05 04:35 S 30 16.09 Partly Cloudy SCT110 13 10.3 84% 75.31 0.0 0.03
05 04:15 S 26 G 46 16.09 Light Rain SCT060 BKN085 OVC110 13.1 10.3 83% 75.34 0.0
05 03:35 SW 20 16.09 Overcast BKN070 OVC085 13.1 10.6 85% 75.41 0.0 0.13
05 03:15 S 33 11.27 Light Rain and Breezy SCT060 OVC070 12.9 11 88% 75.36 0.0 0.1
05 02:55 S 26 8.05 Rain SCT050 BKN070 OVC090 12.8 11.3 91% 75.46 0.0 0.41
05 02:35 SW 13 16.09 Light Rain SCT049 BKN070 OVC090 12.9 11.3 90% 75.49 0.0 0.28
05 02:15 SW 11 8.05 Light Rain SCT043 BKN060 OVC075 13.1 11.2 88% 75.51 0.0 0.2
05 01:55 W 13 16.09 Light Rain BKN048 BKN060 OVC070 13.5 11 27 0.6 85% 75.54 0.0 0.18 0.18
05 01:35 NW 20 G 35 11.27 Light Rain BKN047 OVC060 14.1 10.6 80% 75.51 0.0 0.13
05 01:15 NW 19 11.27 Light Rain SCT047 OVC060 15.1 10 72% 75.49 0.0 0.05
05 00:55 NW 26 G 43 11.27 Rain BKN065 BKN075 OVC110 17.6 8.5 55% 75.41 0.0
05 00:35 NW 24 G 31 16.09 Mostly Cloudy SCT075 BKN110 18.3 7.4 49% 75.34 0.0
05 00:15 S 22 16.09 Overcast BKN075 BKN095 OVC120 18.4 7.4 49% 75.21 0.0
04 23:55 S 19 16.09 Mostly Cloudy BKN075 BKN095 18.4 7.6 50% 75.23 0.0
04 23:35 S 20 16.09 Mostly Cloudy BKN075 18.8 7.6 48% 75.23 0.0
04 23:15 SW 20 G 30 16.09 Mostly Cloudy BKN075 18.6 7.7 49% 75.26 0.0
04 22:55 SW 19 G 28 16.09 Mostly Cloudy BKN075 BKN090 18.5 8 51% 75.26 0.0
04 22:35 SW 19 8.05 Mostly Cloudy with Haze BKN075 BKN090 18.5 8 51% 75.29 0.0
04 22:15 SW 19 16.09 Mostly Cloudy SCT075 BKN090 18.2 8 52% 75.29 0.0
04 21:55 SW 19 16.09 Partly Cloudy SCT090 18.5 7.7 50% 75.26 0.0
04 21:35 SW 17 16.09 Mostly Cloudy BKN090 19.3 7.4 46% 75.23 0.0
04 21:15 SW 20 16.09 Overcast OVC090 20.5 6.7 41% 75.23 0.0
04 20:55 SW 20 G 33 16.09 Overcast OVC090 20.9 6.2 39% 75.23 0.0
04 20:35 SW 26 G 41 16.09 Overcast OVC100 21.2 6.4 38% 75.21 0.0
04 20:15 SW 30 G 39 16.09 Overcast OVC100 21.2 7.7 42% 75.21 0.0
04 19:55 SW 26 16.09 Overcast OVC110 20.6 9.8 27 0.6 50% 75.21 0.0
04 19:35 S 19 G 30 16.09 Overcast OVC110 20.6 9.8 50% 75.23 0.0
04 19:15 S 24 G 33 11.27 Mostly Cloudy BKN100 21.3 9.6 47% 75.26 0.0
04 18:55 SW 33 G 50 16.09 Partly Cloudy and Breezy SCT100 21.7 9.4 46% 75.29 0.0
04 18:35 SW 28 G 39 11.27 Mostly Cloudy BKN100 21.6 9.6 46% 75.29 0.0
04 18:15 SW 26 G 43 11.27 Mostly Cloudy SCT029 SCT090 BKN120 21.7 8.8 44% 75.31 0.0
04 17:55 SW 37 G 48 16.09 Partly Cloudy and Breezy SCT120 22.3 7.9 40% 75.31 0.0
04 17:35 SW 39 G 52 11.27 Fair and Breezy CLR 22.7 7.2 37% 75.34 0.0
04 17:15 SW 43 G 50 16.09 Fair and Windy CLR 23.1 6.3 34% 75.34 0.0
04 16:55 SW 39 G 48 11.27 Fair and Breezy CLR 23.5 6.1 33% 75.34 0.0
04 16:35 SW 35 G 50 11.27 Fair and Breezy CLR 23.5 6.9 34% 75.31 0.0
04 16:15 W 33 G 44 16.09 Mostly Cloudy and Breezy BKN100 23 7 36% 75.34 0.0
04 15:55 SW 41 G 50 16.09 Mostly Cloudy and Breezy BKN100 22.7 7.2 37% 75.36 0.0
04 15:35 SW 46 G 61 11.27 Mostly Cloudy and Windy BKN100 23.1 7.4 37% 75.39 0.0
04 15:15 SW 41 G 59 16.09 Mostly Cloudy and Breezy BKN100 23.4 7.3 36% 75.39 0.0
04 14:55 SW 48 G 61 11.27 Mostly Cloudy and Windy BKN100 23.6 7 34% 75.39 0.0
04 14:35 SW 48 G 61 11.27 Partly Cloudy and Windy SCT100 23.7 7.3 35% 75.39 0.0
04 14:15 SW 44 G 59 16.09 Fair and Windy CLR 23.5 8.3 38% 75.36 0.0
04 13:55 SW 37 G 50 16.09 Fair and Breezy CLR 23 8.6 27 0.6 40% 75.39 0.0
04 13:35 SW 41 G 46 16.09 Fair and Breezy CLR 22.5 8.7 41% 75.39 0.0
Date Time (edt) Wind (kph) Vis. (km) Weather Sky Cond. Air Dwpt Max. Min. Relative Humidity Wind Chill (°C) Heat Index (°C) altimeter (cm) sea level (mb) 1 hr 3 hr 6 hr
6 hour
Temperature (ºC) Pressure Precipitation (cm)